Fairhaven, MA (02719)

11:20 PM EDT on August 04, 2015 (GMT -0400)
West Island | | Change Station
CLOSE
Current Station
Personal Weather Station
Location: Fairhaven, MA
Elevation: 60 ft
Nearby Weather Stations

Elev 60 ft 41.60 °N, 70.83 °W | Updated 2 seconds ago

Clear
Clear
74.0 °F
Feels Like 71 °F
N
0.0
Wind Variable Wind from WNW
Gusts 5.0 mph

Today
High -- | Low -- °F
--% Chance of Precip.
Yesterday
High -- | Low -- °F
Precip. -- in
5:40 AM 7:58 PM
Waning Gibbous, 72% visible
Pressure 29.88 in
Visibility 7.0 miles
Clouds Clear
Heat Index 71 °F
Dew Point 73 °F
Humidity 96%
Rainfall 0.70 in
Snow Depth Not available.
UV 0 out of 12
Pollen 7.30 out of 12
Air Quality Not available.
Flu Activity Not available.
METAR KEWB 050253Z 28005KT 7SM CLR 23/22 A2988 RMK AO2 SLP116 T02280217 51013

More Conditions Fewer Conditions

Pressure 29.88 in
Visibility 7.0 miles
Clouds Clear
Heat Index 71 °F
Dew Point 73 °F
Humidity 96%
Rainfall 0.70 in
Snow Depth Not available.
UV 0 out of 12
Pollen 7.30 out of 12
Air Quality Not available.
Flu Activity Not available.
METAR KEWB 050253Z 28005KT 7SM CLR 23/22 A2988 RMK AO2 SLP116 T02280217 51013

More Conditions Fewer Conditions

10-Day Weather Forecast

×

Almanac

Astronomy

Aug. 04, 2015 Rise Set
Actual Time
Civil Twilight
Nautical Twilight
Astronomical Twilight
Moon
Length of Visible Light
Length of Day
Tomorrow will be .
, % of the Moon is Illuminated

Today's Extremes

State Highs State Lows

Community

WunderPhotos

Upload Photos

1,844,088 photos uploaded!

WunderBlogs® & News

Nearby

Air Quality

  Air Quality AQ Index Pollutant
Not available.

Snow Depth

Station Depth Elevation

Earthquake Activity

City Distance Mag. Time & Date
Minimum magnitude displayed is 2.5.

Coastal Water Temperatures

Place Temperature

Stations

Nearby Weather Stations

Station Location Temp. Windchill Dew Point Humidity Wind Precip. Elev Updated Type